Aviation Digital Data Service (ADDS)

Output produced by TAFs form (1357 UTC 20 September 2014)
found at http://www.aviationweather.gov/adds/tafs/
 
KRIC 201139Z 2012/2112 36004KT P6SM SCT090 
     FM201300 08006KT P6SM SCT040 
     FM202300 VRB03KT P6SM SKC